createdAt,value
2018-12-27T00:01:40.686Z,2.40
2018-12-27T00:04:10.202Z,2.40
2018-12-27T00:06:39.545Z,2.30
2018-12-27T00:09:09.027Z,2.30
2018-12-27T00:11:38.305Z,2.30
2018-12-27T00:14:07.602Z,2.20
2018-12-27T00:16:36.860Z,2.20
2018-12-27T00:19:06.136Z,2.20
2018-12-27T00:21:35.432Z,2.20
2018-12-27T00:24:04.708Z,2.30
2018-12-27T00:26:33.990Z,2.20
2018-12-27T00:29:03.297Z,2.20
2018-12-27T00:31:32.780Z,2.20
2018-12-27T00:34:02.209Z,2.20
2018-12-27T00:36:31.692Z,2.20
2018-12-27T00:39:01.117Z,2.20
2018-12-27T00:41:30.524Z,2.20
2018-12-27T00:43:59.988Z,2.20
2018-12-27T00:46:29.428Z,2.20
2018-12-27T00:48:58.842Z,2.20
2018-12-27T00:51:28.305Z,2.20
2018-12-27T00:53:57.745Z,2.30
2018-12-27T00:56:27.178Z,2.30
2018-12-27T00:58:56.705Z,2.30
2018-12-27T01:01:26.133Z,2.20
2018-12-27T01:03:55.562Z,2.20
2018-12-27T01:06:25.016Z,2.20
2018-12-27T01:08:54.421Z,2.20
2018-12-27T01:11:23.876Z,2.30
2018-12-27T01:13:53.306Z,2.30
2018-12-27T01:16:22.738Z,2.30
2018-12-27T01:18:52.193Z,2.40
2018-12-27T01:21:21.618Z,2.40
2018-12-27T01:23:51.046Z,2.40
2018-12-27T01:26:20.485Z,2.40
2018-12-27T01:28:49.976Z,2.40
2018-12-27T01:31:19.432Z,2.40
2018-12-27T01:33:48.861Z,2.40
2018-12-27T01:36:18.296Z,2.30
2018-12-27T01:38:47.797Z,2.30
2018-12-27T01:41:17.250Z,2.40
2018-12-27T01:43:46.755Z,2.40
2018-12-27T01:46:16.167Z,2.40
2018-12-27T01:48:45.624Z,2.40
2018-12-27T01:51:15.053Z,2.40
2018-12-27T01:53:44.468Z,2.40
2018-12-27T01:56:13.917Z,2.50
2018-12-27T01:58:43.320Z,2.50
2018-12-27T02:01:12.756Z,2.50
2018-12-27T02:03:42.224Z,2.50
2018-12-27T02:06:11.648Z,2.50
2018-12-27T02:08:41.145Z,2.50
2018-12-27T02:11:10.580Z,2.50
2018-12-27T02:13:40.008Z,2.50
2018-12-27T02:16:09.419Z,2.50
2018-12-27T02:18:38.950Z,2.40
2018-12-27T02:21:08.378Z,2.40
2018-12-27T02:23:37.805Z,2.40
2018-12-27T02:26:07.248Z,2.40
2018-12-27T02:28:36.665Z,2.40
2018-12-27T02:31:06.119Z,2.40
2018-12-27T02:33:35.828Z,2.30
2018-12-27T02:36:05.363Z,2.30
2018-12-27T02:38:34.776Z,2.30
2018-12-27T02:41:04.223Z,2.30
2018-12-27T02:43:33.644Z,2.30
2018-12-27T02:46:03.079Z,2.40
2018-12-27T02:48:32.515Z,2.30
2018-12-27T02:51:01.941Z,2.30
2018-12-27T02:53:31.356Z,2.30
2018-12-27T02:56:00.901Z,2.30
2018-12-27T02:58:30.338Z,2.30
2018-12-27T03:00:59.751Z,2.20
2018-12-27T03:03:29.203Z,2.20
2018-12-27T03:05:58.634Z,2.10
2018-12-27T03:08:28.056Z,2.10
2018-12-27T03:10:57.502Z,2.20
2018-12-27T03:13:26.924Z,2.20
2018-12-27T03:15:56.329Z,2.20
2018-12-27T03:18:25.778Z,2.20
2018-12-27T03:20:55.272Z,2.10
2018-12-27T03:23:24.734Z,2.20
2018-12-27T03:25:54.128Z,2.20
2018-12-27T03:28:23.556Z,2.30
2018-12-27T03:30:53.000Z,2.20
2018-12-27T03:33:22.542Z,2.20
2018-12-27T03:35:51.955Z,2.20
2018-12-27T03:38:21.419Z,2.20
2018-12-27T03:40:50.829Z,2.10
2018-12-27T03:43:20.333Z,2.10
2018-12-27T03:45:49.788Z,2.00
2018-12-27T03:48:19.214Z,1.90
2018-12-27T03:50:48.743Z,2.00
2018-12-27T03:53:18.253Z,1.90
2018-12-27T03:55:47.672Z,1.90
2018-12-27T03:58:17.087Z,1.90
2018-12-27T04:00:46.535Z,1.90
2018-12-27T04:03:15.971Z,1.90
2018-12-27T04:05:45.384Z,1.90
2018-12-27T04:08:14.818Z,1.80
2018-12-27T04:10:44.331Z,1.80
2018-12-27T04:13:13.823Z,1.80
2018-12-27T04:15:43.120Z,1.80
2018-12-27T04:18:12.397Z,1.80
2018-12-27T04:20:41.658Z,1.80
2018-12-27T04:23:10.935Z,1.80
2018-12-27T04:25:40.402Z,1.80
2018-12-27T04:28:09.673Z,1.70
2018-12-27T04:30:39.456Z,1.60
2018-12-27T04:33:14.830Z,1.60
2018-12-27T04:35:44.523Z,1.60
2018-12-27T04:38:14.196Z,1.50
2018-12-27T04:40:43.444Z,1.50
2018-12-27T04:43:12.762Z,1.50
2018-12-27T04:45:42.041Z,1.50
2018-12-27T04:48:11.312Z,1.50
2018-12-27T04:50:40.626Z,1.50
2018-12-27T04:53:09.889Z,1.50
2018-12-27T04:55:39.156Z,1.50
2018-12-27T04:58:08.467Z,1.50
2018-12-27T05:00:37.822Z,1.50
2018-12-27T05:03:07.099Z,1.50
2018-12-27T05:05:36.389Z,1.50
2018-12-27T05:08:05.662Z,1.40
2018-12-27T05:10:34.909Z,1.40
2018-12-27T05:13:04.205Z,1.50
2018-12-27T05:15:33.482Z,1.50
2018-12-27T05:18:02.769Z,1.40
2018-12-27T05:20:32.129Z,1.50
2018-12-27T05:23:01.388Z,1.50
2018-12-27T05:25:30.652Z,1.50
2018-12-27T05:27:59.941Z,1.50
2018-12-27T05:30:29.214Z,1.50
2018-12-27T05:32:58.465Z,1.40
2018-12-27T05:35:27.786Z,1.30
2018-12-27T05:37:57.032Z,1.30
2018-12-27T05:40:26.297Z,1.30
2018-12-27T05:42:55.616Z,1.30
2018-12-27T05:45:24.856Z,1.30
2018-12-27T05:47:54.111Z,1.40
2018-12-27T05:50:23.415Z,1.30
2018-12-27T05:52:52.732Z,1.40
2018-12-27T05:55:22.060Z,1.40
2018-12-27T05:57:51.340Z,1.40
2018-12-27T06:00:20.603Z,1.30
2018-12-27T06:02:49.871Z,1.30
2018-12-27T06:05:19.173Z,1.40
2018-12-27T06:07:48.439Z,1.30
2018-12-27T06:10:17.715Z,1.30
2018-12-27T06:12:47.013Z,1.20
2018-12-27T06:15:16.284Z,1.20
2018-12-27T06:17:45.633Z,1.30
2018-12-27T06:20:14.936Z,1.30
2018-12-27T06:22:44.204Z,1.30
2018-12-27T06:25:13.485Z,1.30
2018-12-27T06:27:42.795Z,1.40
2018-12-27T06:30:12.061Z,1.30
2018-12-27T06:32:41.321Z,1.30
2018-12-27T06:35:10.628Z,1.30
2018-12-27T06:37:39.920Z,1.30
2018-12-27T06:40:09.172Z,1.40
2018-12-27T06:42:38.481Z,1.30
2018-12-27T06:45:07.749Z,1.30
2018-12-27T06:47:37.016Z,1.40
2018-12-27T06:50:06.353Z,1.40
2018-12-27T06:52:35.595Z,1.30
2018-12-27T06:55:04.845Z,1.30
2018-12-27T06:57:34.140Z,1.30
2018-12-27T07:00:03.429Z,1.30
2018-12-27T07:02:32.709Z,1.30
2018-12-27T07:05:01.998Z,1.30
2018-12-27T07:07:31.766Z,1.30
2018-12-27T07:10:01.050Z,1.30
2018-12-27T07:12:30.367Z,1.30
2018-12-27T07:14:59.622Z,1.30
2018-12-27T07:17:28.925Z,1.30
2018-12-27T07:19:58.221Z,1.40
2018-12-27T07:22:27.499Z,1.40
2018-12-27T07:24:56.782Z,1.40
2018-12-27T07:27:26.152Z,1.40
2018-12-27T07:29:55.425Z,1.40
2018-12-27T07:32:24.702Z,1.40
2018-12-27T07:34:56.653Z,1.40
2018-12-27T07:37:25.052Z,1.40
2018-12-27T07:39:54.326Z,1.40
2018-12-27T07:42:23.678Z,1.50
2018-12-27T07:44:52.980Z,1.60
2018-12-27T07:47:22.271Z,1.60
2018-12-27T07:49:51.638Z,1.60
2018-12-27T07:52:20.924Z,1.60
2018-12-27T07:54:50.209Z,1.70
2018-12-27T07:57:19.518Z,1.90
2018-12-27T07:59:48.797Z,2.00
2018-12-27T08:02:18.633Z,2.20
2018-12-27T08:04:47.937Z,2.40
2018-12-27T08:07:17.278Z,2.60
2018-12-27T08:09:46.543Z,2.90
2018-12-27T08:12:15.854Z,3.50
2018-12-27T08:14:45.138Z,4.00
2018-12-27T08:17:14.484Z,4.10
2018-12-27T08:19:43.806Z,4.30
2018-12-27T08:22:13.097Z,4.40
2018-12-27T08:24:42.362Z,4.60
2018-12-27T08:27:11.669Z,4.80
2018-12-27T08:29:40.947Z,5.20
2018-12-27T08:32:10.225Z,4.90
2018-12-27T08:34:39.509Z,4.80
2018-12-27T08:37:08.781Z,4.80
2018-12-27T08:39:38.085Z,4.70
2018-12-27T08:42:07.372Z,4.70
2018-12-27T08:44:36.659Z,4.60
2018-12-27T08:47:05.909Z,4.60
2018-12-27T08:49:35.220Z,4.50
2018-12-27T08:52:04.517Z,4.20
2018-12-27T08:54:33.793Z,4.20
2018-12-27T08:57:03.093Z,4.70
2018-12-27T08:59:32.439Z,4.80
2018-12-27T09:02:01.711Z,5.30
2018-12-27T09:04:31.006Z,5.40
2018-12-27T09:07:00.286Z,5.50
2018-12-27T09:09:29.557Z,5.50
2018-12-27T09:11:58.861Z,4.90
2018-12-27T09:14:28.153Z,4.30
2018-12-27T09:16:57.424Z,3.90
2018-12-27T09:19:26.732Z,3.90
2018-12-27T09:21:56.011Z,3.90
2018-12-27T09:24:25.314Z,3.90
2018-12-27T09:26:54.693Z,4.00
2018-12-27T09:29:23.975Z,4.20
2018-12-27T09:31:53.264Z,4.30
2018-12-27T09:34:22.563Z,4.50
2018-12-27T09:36:51.825Z,4.70
2018-12-27T09:39:21.087Z,5.00
2018-12-27T09:41:50.421Z,5.20
2018-12-27T09:44:19.699Z,5.40
2018-12-27T09:46:48.962Z,5.60
2018-12-27T09:49:18.267Z,5.80
2018-12-27T09:51:47.557Z,6.20
2018-12-27T09:54:16.857Z,6.70
2018-12-27T09:56:46.140Z,7.00
2018-12-27T09:59:15.387Z,7.00
2018-12-27T10:01:44.664Z,6.90
2018-12-27T10:04:13.958Z,6.70
2018-12-27T10:06:43.241Z,6.00
2018-12-27T10:09:12.619Z,6.00
2018-12-27T10:11:41.921Z,5.70
2018-12-27T10:14:11.206Z,5.70
2018-12-27T10:16:40.472Z,5.80
2018-12-27T10:19:09.763Z,5.60
2018-12-27T10:21:39.050Z,5.80
2018-12-27T10:24:08.320Z,6.10
2018-12-27T10:26:37.628Z,6.20
2018-12-27T10:29:06.911Z,6.10
2018-12-27T10:31:38.019Z,6.10
2018-12-27T10:34:07.318Z,6.20
2018-12-27T10:36:36.576Z,6.00
2018-12-27T10:39:11.240Z,6.20
2018-12-27T10:41:40.530Z,6.40
2018-12-27T10:44:09.802Z,6.70
2018-12-27T10:46:39.092Z,7.00
2018-12-27T10:49:08.366Z,7.10
2018-12-27T10:51:37.634Z,7.20
2018-12-27T10:54:06.949Z,7.20
2018-12-27T10:56:36.191Z,7.00
2018-12-27T10:59:05.486Z,6.70
2018-12-27T11:01:34.785Z,6.60
2018-12-27T11:04:04.066Z,6.50
2018-12-27T11:06:33.319Z,6.40
2018-12-27T11:09:02.611Z,6.30
2018-12-27T11:11:31.900Z,6.30
2018-12-27T11:14:01.171Z,6.10
2018-12-27T11:16:30.480Z,5.90
2018-12-27T11:18:59.754Z,5.70
2018-12-27T11:21:29.035Z,5.90
2018-12-27T11:23:58.323Z,6.20
2018-12-27T11:26:27.679Z,6.60
2018-12-27T11:28:56.946Z,6.60
2018-12-27T11:31:26.233Z,6.80
2018-12-27T11:33:55.517Z,6.80
2018-12-27T11:36:24.796Z,6.80
2018-12-27T11:38:54.105Z,7.00
2018-12-27T11:41:23.383Z,7.10
2018-12-27T11:43:52.644Z,7.30
2018-12-27T11:46:21.942Z,7.10
2018-12-27T11:48:51.218Z,7.10
2018-12-27T11:51:20.556Z,7.30
2018-12-27T11:53:49.845Z,7.50
2018-12-27T11:56:19.118Z,7.10
2018-12-27T11:58:48.376Z,7.00
2018-12-27T12:01:17.673Z,6.90
2018-12-27T12:03:46.945Z,6.50
2018-12-27T12:06:16.230Z,6.30
2018-12-27T12:08:45.549Z,6.30
2018-12-27T12:11:14.858Z,6.20
2018-12-27T12:13:44.108Z,6.20
2018-12-27T12:16:13.396Z,6.30
2018-12-27T12:18:42.662Z,6.40
2018-12-27T12:21:11.940Z,6.80
2018-12-27T12:23:41.258Z,6.90
2018-12-27T12:26:10.530Z,6.60
2018-12-27T12:28:39.781Z,6.50
2018-12-27T12:31:09.093Z,6.50
2018-12-27T12:33:38.373Z,6.50
2018-12-27T12:36:10.815Z,6.40
2018-12-27T12:38:38.980Z,6.70
2018-12-27T12:41:08.265Z,6.60
2018-12-27T12:43:37.550Z,6.60
2018-12-27T12:46:06.864Z,6.60
2018-12-27T12:48:36.126Z,6.40
2018-12-27T12:51:05.392Z,6.80
2018-12-27T12:53:34.701Z,7.40
2018-12-27T12:56:03.985Z,7.60
2018-12-27T12:58:33.251Z,7.60
2018-12-27T13:01:02.554Z,7.60
2018-12-27T13:03:31.837Z,7.50
2018-12-27T13:06:01.095Z,7.40
2018-12-27T13:08:30.370Z,7.40
2018-12-27T13:10:59.660Z,7.40
2018-12-27T13:13:28.936Z,7.50
2018-12-27T13:15:58.211Z,7.60
2018-12-27T13:18:27.505Z,7.40
2018-12-27T13:20:56.835Z,7.40
2018-12-27T13:23:26.153Z,7.40
2018-12-27T13:25:55.474Z,7.50
2018-12-27T13:28:24.773Z,7.40
2018-12-27T13:30:54.084Z,7.40
2018-12-27T13:33:23.364Z,7.60
2018-12-27T13:35:52.664Z,7.60
2018-12-27T13:38:21.992Z,8.90
2018-12-27T13:40:51.281Z,8.70
2018-12-27T13:43:20.594Z,7.90
2018-12-27T13:45:49.888Z,7.40
2018-12-27T13:48:19.156Z,6.90
2018-12-27T13:50:48.464Z,6.80
2018-12-27T13:53:17.885Z,6.70
2018-12-27T13:55:47.164Z,6.80
2018-12-27T13:58:16.631Z,7.00
2018-12-27T14:00:45.920Z,7.20
2018-12-27T14:03:15.191Z,7.20
2018-12-27T14:05:44.466Z,7.10
2018-12-27T14:08:13.754Z,7.00
2018-12-27T14:10:43.049Z,7.00
2018-12-27T14:13:12.342Z,7.00
2018-12-27T14:15:41.625Z,6.80
2018-12-27T14:18:10.895Z,6.70
2018-12-27T14:20:40.136Z,6.70
2018-12-27T14:23:09.445Z,6.70
2018-12-27T14:25:38.733Z,6.70
2018-12-27T14:28:08.025Z,6.80
2018-12-27T14:30:37.329Z,6.80
2018-12-27T14:33:06.602Z,6.80
2018-12-27T14:35:35.878Z,6.80
2018-12-27T14:38:05.257Z,6.80
2018-12-27T14:40:34.615Z,6.70
2018-12-27T14:43:03.877Z,6.60
2018-12-27T14:45:33.195Z,6.50
2018-12-27T14:48:02.484Z,6.40
2018-12-27T14:50:31.781Z,6.40
2018-12-27T14:53:01.074Z,6.40
2018-12-27T14:55:30.540Z,6.40
2018-12-27T14:57:59.997Z,6.20
2018-12-27T15:00:30.303Z,6.20
2018-12-27T15:02:59.811Z,6.20
2018-12-27T15:05:29.364Z,6.10
2018-12-27T15:07:58.729Z,6.10
2018-12-27T15:10:27.999Z,6.10
2018-12-27T15:12:57.278Z,6.10
2018-12-27T15:15:26.564Z,6.00
2018-12-27T15:17:55.833Z,6.00
2018-12-27T15:20:25.096Z,5.90
2018-12-27T15:22:54.396Z,6.00
2018-12-27T15:25:23.668Z,6.00
2018-12-27T15:27:52.944Z,6.00
2018-12-27T15:30:22.224Z,5.90
2018-12-27T15:32:51.488Z,5.90
2018-12-27T15:35:20.761Z,5.90
2018-12-27T15:37:50.063Z,5.90
2018-12-27T15:40:19.326Z,5.90
2018-12-27T15:42:48.738Z,5.80
2018-12-27T15:45:18.049Z,5.80
2018-12-27T15:47:47.308Z,5.80
2018-12-27T15:50:16.593Z,5.80
2018-12-27T15:52:45.952Z,5.80
2018-12-27T15:55:15.219Z,5.80
2018-12-27T15:57:44.497Z,5.70
2018-12-27T16:00:13.782Z,5.70
2018-12-27T16:02:43.071Z,5.80
2018-12-27T16:05:12.964Z,5.70
2018-12-27T16:07:42.336Z,5.80
2018-12-27T16:10:11.601Z,5.70
2018-12-27T16:12:40.915Z,5.80
2018-12-27T16:15:10.213Z,5.70
2018-12-27T16:17:39.485Z,5.60
2018-12-27T16:20:08.740Z,5.60
2018-12-27T16:22:38.035Z,5.60
2018-12-27T16:25:07.380Z,5.50
2018-12-27T16:27:36.822Z,5.50
2018-12-27T16:30:06.584Z,5.50
2018-12-27T16:32:35.871Z,5.40
2018-12-27T16:35:05.538Z,5.40
2018-12-27T16:37:34.878Z,5.30
2018-12-27T16:40:04.419Z,5.30
2018-12-27T16:42:33.751Z,5.20
2018-12-27T16:45:03.070Z,5.20
2018-12-27T16:47:32.348Z,5.20
2018-12-27T16:50:01.690Z,5.20
2018-12-27T16:52:31.019Z,5.30
2018-12-27T16:55:01.887Z,5.20
2018-12-27T16:57:31.253Z,5.10
2018-12-27T17:00:00.549Z,5.10
2018-12-27T17:02:29.845Z,5.10
2018-12-27T17:04:59.116Z,5.10
2018-12-27T17:07:28.487Z,5.10
2018-12-27T17:09:57.796Z,5.10
2018-12-27T17:12:27.089Z,5.20
2018-12-27T17:14:56.368Z,5.10
2018-12-27T17:17:26.587Z,5.10
2018-12-27T17:19:55.873Z,5.10
2018-12-27T17:22:25.162Z,5.20
2018-12-27T17:24:54.470Z,5.10
2018-12-27T17:27:25.336Z,5.10
2018-12-27T17:29:54.608Z,5.10
2018-12-27T17:32:23.941Z,5.10
2018-12-27T17:34:53.324Z,5.10
2018-12-27T17:37:23.397Z,5.00
2018-12-27T17:39:52.984Z,5.00
2018-12-27T17:42:22.264Z,5.00
2018-12-27T17:44:51.557Z,5.00
2018-12-27T17:47:20.872Z,5.00
2018-12-27T17:49:50.154Z,5.00
2018-12-27T17:52:19.435Z,5.00
2018-12-27T17:54:48.845Z,5.10
2018-12-27T17:57:18.150Z,5.10
2018-12-27T17:59:47.444Z,5.10
2018-12-27T18:02:16.748Z,5.00
2018-12-27T18:04:46.040Z,4.90
2018-12-27T18:07:15.321Z,4.90
2018-12-27T18:09:45.754Z,4.90
2018-12-27T18:12:15.213Z,4.90
2018-12-27T18:14:44.493Z,4.80
2018-12-27T18:17:13.858Z,4.80
2018-12-27T18:19:43.135Z,4.80
2018-12-27T18:22:12.417Z,4.70
2018-12-27T18:24:41.727Z,4.70
2018-12-27T18:27:11.016Z,4.60
2018-12-27T18:29:40.288Z,4.70
2018-12-27T18:32:09.661Z,4.70
2018-12-27T18:34:38.938Z,4.70
2018-12-27T18:37:09.529Z,4.70
2018-12-27T18:39:38.963Z,4.70
2018-12-27T18:42:08.301Z,4.80
2018-12-27T18:44:38.126Z,4.80
2018-12-27T18:47:07.641Z,4.80
2018-12-27T18:49:36.959Z,4.80
2018-12-27T18:52:06.235Z,4.70
2018-12-27T18:54:35.557Z,4.70
2018-12-27T18:57:04.917Z,4.70
2018-12-27T18:59:34.289Z,4.70
2018-12-27T19:02:03.693Z,4.70
2018-12-27T19:04:33.046Z,4.60
2018-12-27T19:07:02.342Z,4.60
2018-12-27T19:09:31.662Z,4.60
2018-12-27T19:12:36.636Z,4.60
2018-12-27T19:15:09.840Z,4.50
2018-12-27T19:17:45.671Z,4.50
2018-12-27T19:20:15.048Z,4.40
2018-12-27T19:22:50.461Z,4.40
2018-12-27T19:25:19.871Z,4.30
2018-12-27T19:27:49.247Z,4.30
2018-12-27T19:30:18.589Z,4.40
2018-12-27T19:32:47.889Z,4.40
2018-12-27T19:35:17.153Z,4.40
2018-12-27T19:37:52.117Z,4.50
2018-12-27T19:40:17.469Z,4.50
2018-12-27T19:42:46.723Z,4.50
2018-12-27T19:45:15.966Z,4.60
2018-12-27T19:47:45.296Z,4.50
2018-12-27T19:50:14.600Z,4.50
2018-12-27T19:52:43.915Z,4.40
2018-12-27T19:55:13.309Z,4.30
2018-12-27T19:57:42.648Z,4.30
2018-12-27T20:00:11.931Z,4.30
2018-12-27T20:02:41.348Z,4.40
2018-12-27T20:05:10.745Z,4.40
2018-12-27T20:07:40.033Z,4.40
2018-12-27T20:10:09.403Z,4.40
2018-12-27T20:12:38.889Z,4.30
2018-12-27T20:15:08.282Z,4.20
2018-12-27T20:17:37.697Z,4.30
2018-12-27T20:20:07.960Z,4.20
2018-12-27T20:22:37.397Z,4.50
2018-12-27T20:25:07.590Z,5.00
2018-12-27T20:27:36.968Z,5.30
2018-12-27T20:30:07.619Z,5.60
2018-12-27T20:32:37.047Z,5.80
2018-12-27T20:35:06.523Z,5.80
2018-12-27T20:37:35.879Z,6.00
2018-12-27T20:40:05.768Z,5.90
2018-12-27T20:42:35.185Z,6.00
2018-12-27T20:45:04.710Z,5.80
2018-12-27T20:47:34.087Z,5.30
2018-12-27T20:50:03.529Z,4.80
2018-12-27T20:52:32.906Z,4.40
2018-12-27T20:55:02.353Z,4.30
2018-12-27T20:57:31.796Z,4.30
2018-12-27T21:00:01.184Z,4.30
2018-12-27T21:02:30.628Z,4.30
2018-12-27T21:05:00.006Z,4.20
2018-12-27T21:07:29.292Z,4.10
2018-12-27T21:09:58.800Z,4.00
2018-12-27T21:12:29.286Z,3.90
2018-12-27T21:14:58.602Z,3.80
2018-12-27T21:17:27.972Z,3.80
2018-12-27T21:19:57.399Z,3.80
2018-12-27T21:22:26.810Z,3.70
2018-12-27T21:24:56.187Z,3.70
2018-12-27T21:27:25.510Z,3.60
2018-12-27T21:29:54.901Z,3.60
2018-12-27T21:32:24.992Z,3.60
2018-12-27T21:34:54.501Z,3.60
2018-12-27T21:37:23.849Z,3.60
2018-12-27T21:39:53.282Z,3.60
2018-12-27T21:42:22.621Z,3.70
2018-12-27T21:44:51.940Z,3.70
2018-12-27T21:47:21.316Z,3.60
2018-12-27T21:49:50.744Z,3.70
2018-12-27T21:52:20.212Z,3.70
2018-12-27T21:54:49.562Z,3.70
2018-12-27T21:57:18.924Z,3.70
2018-12-27T21:59:48.297Z,3.70
2018-12-27T22:02:17.681Z,3.80
2018-12-27T22:04:47.079Z,3.70
2018-12-27T22:07:16.550Z,3.70
2018-12-27T22:09:45.959Z,3.70
2018-12-27T22:12:17.117Z,3.70
2018-12-27T22:14:46.781Z,3.70
2018-12-27T22:17:16.102Z,3.70
2018-12-27T22:19:45.449Z,3.70
2018-12-27T22:22:14.866Z,3.80
2018-12-27T22:24:44.183Z,3.80
2018-12-27T22:27:13.484Z,3.80
2018-12-27T22:29:42.965Z,3.80
2018-12-27T22:32:12.333Z,3.90
2018-12-27T22:34:41.619Z,3.80
2018-12-27T22:37:10.922Z,3.70
2018-12-27T22:39:40.212Z,3.70
2018-12-27T22:42:09.507Z,3.70
2018-12-27T22:44:38.853Z,3.80
2018-12-27T22:47:08.137Z,3.80
2018-12-27T22:49:37.438Z,3.70
2018-12-27T22:52:06.806Z,3.70
2018-12-27T22:54:36.112Z,3.70
2018-12-27T22:57:05.421Z,3.70
2018-12-27T22:59:34.732Z,3.70
2018-12-27T23:02:04.640Z,3.60
2018-12-27T23:04:33.930Z,3.60
2018-12-27T23:07:03.405Z,3.60
2018-12-27T23:09:32.687Z,3.60
2018-12-27T23:12:01.988Z,3.60
2018-12-27T23:14:31.308Z,3.50
2018-12-27T23:17:00.614Z,3.60
2018-12-27T23:19:29.961Z,3.60
2018-12-27T23:21:59.377Z,3.60
2018-12-27T23:24:28.693Z,3.60
2018-12-27T23:26:58.019Z,3.60
2018-12-27T23:29:27.388Z,3.70
2018-12-27T23:31:56.695Z,3.70
2018-12-27T23:34:25.994Z,3.70
2018-12-27T23:36:55.298Z,3.60
2018-12-27T23:39:24.599Z,3.60
2018-12-27T23:41:53.916Z,3.50
2018-12-27T23:44:23.231Z,3.50
2018-12-27T23:46:52.518Z,3.50
2018-12-27T23:49:21.820Z,3.50
2018-12-27T23:51:51.476Z,3.60
2018-12-27T23:54:21.086Z,3.50
2018-12-27T23:56:50.596Z,3.50
2018-12-27T23:59:20.203Z,3.40
